sensor_id;sensor_type;location;lat;lon;timestamp;pressure;altitude;pressure_sealevel;temperature;humidity
39435;BME280;66825;51.880;-0.518;2023-07-22T00:02:00;100449.75;;;21.73;40.75
39435;BME280;66825;51.880;-0.518;2023-07-22T00:04:26;100439.47;;;21.70;40.57
39435;BME280;66825;51.880;-0.518;2023-07-22T00:06:52;100440.25;;;21.71;40.56
39435;BME280;66825;51.880;-0.518;2023-07-22T00:09:17;100441.88;;;21.72;40.50
39435;BME280;66825;51.880;-0.518;2023-07-22T00:11:43;100439.94;;;21.72;40.88
39435;BME280;66825;51.880;-0.518;2023-07-22T00:14:09;100431.88;;;21.67;40.68
39435;BME280;66825;51.880;-0.518;2023-07-22T00:16:34;100443.00;;;21.71;40.67
39435;BME280;66825;51.880;-0.518;2023-07-22T00:19:00;100436.72;;;21.70;40.68
39435;BME280;66825;51.880;-0.518;2023-07-22T00:21:26;100428.50;;;21.70;40.82
39435;BME280;66825;51.880;-0.518;2023-07-22T00:23:51;100413.22;;;21.61;40.71
39435;BME280;66825;51.880;-0.518;2023-07-22T00:26:16;100424.16;;;21.69;40.65
39435;BME280;66825;51.880;-0.518;2023-07-22T00:28:42;100428.00;;;21.68;41.02
39435;BME280;66825;51.880;-0.518;2023-07-22T00:31:09;100427.22;;;21.68;40.63
39435;BME280;66825;51.880;-0.518;2023-07-22T00:33:34;100425.28;;;21.68;40.84
39435;BME280;66825;51.880;-0.518;2023-07-22T00:35:59;100421.75;;;21.68;40.63
39435;BME280;66825;51.880;-0.518;2023-07-22T00:38:25;100419.00;;;21.68;40.83
39435;BME280;66825;51.880;-0.518;2023-07-22T00:40:50;100416.91;;;21.65;40.97
39435;BME280;66825;51.880;-0.518;2023-07-22T00:43:16;100420.13;;;21.67;40.78
39435;BME280;66825;51.880;-0.518;2023-07-22T00:45:41;100416.56;;;21.66;40.69
39435;BME280;66825;51.880;-0.518;2023-07-22T00:48:08;100410.63;;;21.64;40.83
39435;BME280;66825;51.880;-0.518;2023-07-22T00:50:35;100412.25;;;21.65;40.68
39435;BME280;66825;51.880;-0.518;2023-07-22T00:53:00;100412.25;;;21.65;40.57
39435;BME280;66825;51.880;-0.518;2023-07-22T00:55:27;100414.16;;;21.65;40.81
39435;BME280;66825;51.880;-0.518;2023-07-22T00:57:54;100405.44;;;21.63;40.82
39435;BME280;66825;51.880;-0.518;2023-07-22T01:00:20;100406.75;;;21.65;40.91
39435;BME280;66825;51.880;-0.518;2023-07-22T01:02:45;100402.41;;;21.64;40.81
39435;BME280;66825;51.880;-0.518;2023-07-22T01:05:11;100398.84;;;21.64;40.80
39435;BME280;66825;51.880;-0.518;2023-07-22T01:07:38;100398.53;;;21.65;40.86
39435;BME280;66825;51.880;-0.518;2023-07-22T01:10:05;100382.59;;;21.58;40.70
39435;BME280;66825;51.880;-0.518;2023-07-22T01:12:31;100398.06;;;21.63;40.68
39435;BME280;66825;51.880;-0.518;2023-07-22T01:14:57;100386.25;;;21.63;40.77
39435;BME280;66825;51.880;-0.518;2023-07-22T01:17:23;100384.69;;;21.62;40.89
39435;BME280;66825;51.880;-0.518;2023-07-22T01:19:50;100379.19;;;21.62;40.95
39435;BME280;66825;51.880;-0.518;2023-07-22T01:22:16;100358.41;;;21.61;40.88
39435;BME280;66825;51.880;-0.518;2023-07-22T01:24:42;100357.56;;;21.60;40.75
39435;BME280;66825;51.880;-0.518;2023-07-22T01:27:08;100357.56;;;21.60;40.80
39435;BME280;66825;51.880;-0.518;2023-07-22T01:29:35;100352.09;;;21.60;40.74
39435;BME280;66825;51.880;-0.518;2023-07-22T01:32:01;100357.56;;;21.60;40.89
39435;BME280;66825;51.880;-0.518;2023-07-22T01:34:27;100352.44;;;21.58;40.85
39435;BME280;66825;51.880;-0.518;2023-07-22T01:36:52;100359.53;;;21.60;40.81
39435;BME280;66825;51.880;-0.518;2023-07-22T01:39:19;100348.56;;;21.60;40.89
39435;BME280;66825;51.880;-0.518;2023-07-22T01:41:45;100308.31;;;21.34;40.89
39435;BME280;66825;51.880;-0.518;2023-07-22T01:44:10;100341.47;;;21.58;40.90
39435;BME280;66825;51.880;-0.518;2023-07-22T01:46:36;100345.34;;;21.57;40.91
39435;BME280;66825;51.880;-0.518;2023-07-22T01:49:05;100336.59;;;21.55;40.87
39435;BME280;66825;51.880;-0.518;2023-07-22T01:51:33;100352.44;;;21.58;40.94
39435;BME280;66825;51.880;-0.518;2023-07-22T01:53:58;100343.69;;;21.56;40.74
39435;BME280;66825;51.880;-0.518;2023-07-22T01:56:24;100349.19;;;21.56;40.98
39435;BME280;66825;51.880;-0.518;2023-07-22T01:58:50;100342.91;;;21.56;41.02
39435;BME280;66825;51.880;-0.518;2023-07-22T02:01:15;100345.66;;;21.56;40.83
39435;BME280;66825;51.880;-0.518;2023-07-22T02:03:44;100350.31;;;21.55;41.02
39435;BME280;66825;51.880;-0.518;2023-07-22T02:06:12;100347.56;;;21.55;40.91
39435;BME280;66825;51.880;-0.518;2023-07-22T02:08:38;100351.47;;;21.54;40.99
39435;BME280;66825;51.880;-0.518;2023-07-22T02:11:06;100352.25;;;21.55;40.91
39435;BME280;66825;51.880;-0.518;2023-07-22T02:13:33;100356.13;;;21.54;40.95
39435;BME280;66825;51.880;-0.518;2023-07-22T02:15:59;100333.44;;;21.45;41.04
39435;BME280;66825;51.880;-0.518;2023-07-22T02:18:25;100350.66;;;21.54;41.00
39435;BME280;66825;51.880;-0.518;2023-07-22T02:20:51;100296.28;;;21.26;41.00
39435;BME280;66825;51.880;-0.518;2023-07-22T02:23:16;100334.19;;;21.54;40.89
39435;BME280;66825;51.880;-0.518;2023-07-22T02:25:42;100333.41;;;21.53;40.82
39435;BME280;66825;51.880;-0.518;2023-07-22T02:28:07;100332.59;;;21.53;40.88
39435;BME280;66825;51.880;-0.518;2023-07-22T02:30:37;100335.31;;;21.53;40.98
39435;BME280;66825;51.880;-0.518;2023-07-22T02:33:06;100279.91;;;21.17;41.09
39435;BME280;66825;51.880;-0.518;2023-07-22T02:35:31;100329.06;;;21.52;40.86
39435;BME280;66825;51.880;-0.518;2023-07-22T02:37:57;100331.78;;;21.52;40.81
39435;BME280;66825;51.880;-0.518;2023-07-22T02:40:23;100332.13;;;21.51;41.06
39435;BME280;66825;51.880;-0.518;2023-07-22T02:42:48;100323.91;;;21.51;40.98
39435;BME280;66825;51.880;-0.518;2023-07-22T02:45:13;100330.19;;;21.51;40.98
39435;BME280;66825;51.880;-0.518;2023-07-22T02:47:39;100314.88;;;21.50;41.03
39435;BME280;66825;51.880;-0.518;2023-07-22T02:50:08;100315.22;;;21.49;40.97
39435;BME280;66825;51.880;-0.518;2023-07-22T02:52:34;100314.88;;;21.50;40.95
39435;BME280;66825;51.880;-0.518;2023-07-22T02:55:18;100305.88;;;21.41;41.04
39435;BME280;66825;51.880;-0.518;2023-07-22T02:57:45;100308.91;;;21.48;40.96
39435;BME280;66825;51.880;-0.518;2023-07-22T03:00:12;100267.00;;;21.18;40.86
39435;BME280;66825;51.880;-0.518;2023-07-22T03:02:39;100315.22;;;21.49;40.86
39435;BME280;66825;51.880;-0.518;2023-07-22T03:05:06;100319.88;;;21.48;41.04
39435;BME280;66825;51.880;-0.518;2023-07-22T03:07:38;100309.25;;;21.47;40.97
39435;BME280;66825;51.880;-0.518;2023-07-22T03:10:07;100310.06;;;21.47;40.99
39435;BME280;66825;51.880;-0.518;2023-07-22T03:12:33;100306.50;;;21.47;40.99
39435;BME280;66825;51.880;-0.518;2023-07-22T03:14:59;100303.28;;;21.45;41.02
39435;BME280;66825;51.880;-0.518;2023-07-22T03:17:24;100304.09;;;21.45;40.98
39435;BME280;66825;51.880;-0.518;2023-07-22T03:19:50;100287.38;;;21.38;41.17
39435;BME280;66825;51.880;-0.518;2023-07-22T03:22:17;100295.06;;;21.45;40.91
39435;BME280;66825;51.880;-0.518;2023-07-22T03:24:43;100299.41;;;21.46;40.93
39435;BME280;66825;51.880;-0.518;2023-07-22T03:27:09;100299.75;;;21.44;40.91
39435;BME280;66825;51.880;-0.518;2023-07-22T03:29:35;100305.22;;;21.44;41.26
39435;BME280;66825;51.880;-0.518;2023-07-22T03:32:00;100293.78;;;21.42;41.21
39435;BME280;66825;51.880;-0.518;2023-07-22T03:34:27;100291.53;;;21.44;41.26
39435;BME280;66825;51.880;-0.518;2023-07-22T03:36:53;100297.00;;;21.44;41.08
39435;BME280;66825;51.880;-0.518;2023-07-22T03:39:18;100297.00;;;21.44;41.11
39435;BME280;66825;51.880;-0.518;2023-07-22T03:41:44;100296.22;;;21.44;41.27
39435;BME280;66825;51.880;-0.518;2023-07-22T03:44:09;100298.47;;;21.41;40.92
39435;BME280;66825;51.880;-0.518;2023-07-22T03:46:35;100304.44;;;21.44;41.12
39435;BME280;66825;51.880;-0.518;2023-07-22T03:49:00;100292.66;;;21.43;40.94
39435;BME280;66825;51.880;-0.518;2023-07-22T03:51:26;100295.75;;;21.41;40.98
39435;BME280;66825;51.880;-0.518;2023-07-22T03:53:51;100293.00;;;21.41;40.95
39435;BME280;66825;51.880;-0.518;2023-07-22T03:56:17;100275.44;;;21.34;41.13
39435;BME280;66825;51.880;-0.518;2023-07-22T03:58:42;100287.50;;;21.41;41.11
39435;BME280;66825;51.880;-0.518;2023-07-22T04:01:11;100279.28;;;21.41;41.18
39435;BME280;66825;51.880;-0.518;2023-07-22T04:03:37;100224.69;;;21.06;41.13
39435;BME280;66825;51.880;-0.518;2023-07-22T04:06:03;100274.94;;;21.40;41.08
39435;BME280;66825;51.880;-0.518;2023-07-22T04:08:28;100277.69;;;21.40;41.23
39435;BME280;66825;51.880;-0.518;2023-07-22T04:10:55;100274.16;;;21.40;41.30
39435;BME280;66825;51.880;-0.518;2023-07-22T04:13:21;100235.06;;;21.22;41.18
39435;BME280;66825;51.880;-0.518;2023-07-22T04:15:47;100241.84;;;21.24;41.09
39435;BME280;66825;51.880;-0.518;2023-07-22T04:18:15;100267.06;;;21.39;41.32
39435;BME280;66825;51.880;-0.518;2023-07-22T04:20:40;100272.53;;;21.39;41.21
39435;BME280;66825;51.880;-0.518;2023-07-22T04:23:06;100255.97;;;21.26;41.13
39435;BME280;66825;51.880;-0.518;2023-07-22T04:25:31;100277.19;;;21.38;41.14
39435;BME280;66825;51.880;-0.518;2023-07-22T04:27:57;100275.28;;;21.39;41.14
39435;BME280;66825;51.880;-0.518;2023-07-22T04:30:22;100277.19;;;21.38;41.07
39435;BME280;66825;51.880;-0.518;2023-07-22T04:32:50;100279.16;;;21.38;41.26
39435;BME280;66825;51.880;-0.518;2023-07-22T04:35:18;100272.84;;;21.37;41.23
39435;BME280;66825;51.880;-0.518;2023-07-22T04:37:44;100263.84;;;21.37;41.33
39435;BME280;66825;51.880;-0.518;2023-07-22T04:40:11;100212.41;;;21.04;41.04
39435;BME280;66825;51.880;-0.518;2023-07-22T04:42:40;100262.22;;;21.36;41.16
39435;BME280;66825;51.880;-0.518;2023-07-22T04:45:06;100187.88;;;20.86;41.27
39435;BME280;66825;51.880;-0.518;2023-07-22T04:47:32;100274.81;;;21.37;41.26
39435;BME280;66825;51.880;-0.518;2023-07-22T04:49:57;100264.19;;;21.35;41.25
39435;BME280;66825;51.880;-0.518;2023-07-22T04:52:23;100256.75;;;21.36;41.18
39435;BME280;66825;51.880;-0.518;2023-07-22T04:54:48;100250.66;;;21.30;41.04
39435;BME280;66825;51.880;-0.518;2023-07-22T04:57:14;100251.59;;;21.34;41.14
39435;BME280;66825;51.880;-0.518;2023-07-22T04:59:42;100199.41;;;21.01;41.08
39435;BME280;66825;51.880;-0.518;2023-07-22T05:02:08;100248.88;;;21.34;41.18
39435;BME280;66825;51.880;-0.518;2023-07-22T05:04:33;100259.81;;;21.34;40.99
39435;BME280;66825;51.880;-0.518;2023-07-22T05:06:59;100254.34;;;21.34;41.05
39435;BME280;66825;51.880;-0.518;2023-07-22T05:09:25;100244.72;;;21.28;41.11
39435;BME280;66825;51.880;-0.518;2023-07-22T05:11:50;100249.66;;;21.35;41.28
39435;BME280;66825;51.880;-0.518;2023-07-22T05:14:16;100240.97;;;21.33;41.16
39435;BME280;66825;51.880;-0.518;2023-07-22T05:16:41;100246.47;;;21.33;41.37
39435;BME280;66825;51.880;-0.518;2023-07-22T05:19:06;100128.38;;;20.57;41.41
39435;BME280;66825;51.880;-0.518;2023-07-22T05:21:33;100246.47;;;21.33;41.15
39435;BME280;66825;51.880;-0.518;2023-07-22T05:23:59;100236.28;;;21.33;41.43
39435;BME280;66825;51.880;-0.518;2023-07-22T05:26:24;100231.16;;;21.32;41.39
39435;BME280;66825;51.880;-0.518;2023-07-22T05:28:49;100181.22;;;20.96;41.27
39435;BME280;66825;51.880;-0.518;2023-07-22T05:31:16;100238.91;;;21.30;41.09
39435;BME280;66825;51.880;-0.518;2023-07-22T05:33:41;100235.81;;;21.31;41.31
39435;BME280;66825;51.880;-0.518;2023-07-22T05:36:06;100230.34;;;21.31;41.17
39435;BME280;66825;51.880;-0.518;2023-07-22T05:38:32;100232.28;;;21.31;41.32
39435;BME280;66825;51.880;-0.518;2023-07-22T05:40:58;100233.41;;;21.30;41.39
39435;BME280;66825;51.880;-0.518;2023-07-22T05:43:23;100236.94;;;21.30;41.21
39435;BME280;66825;51.880;-0.518;2023-07-22T05:45:49;100230.69;;;21.30;41.41
39435;BME280;66825;51.880;-0.518;2023-07-22T05:48:14;100225.19;;;21.30;41.22
39435;BME280;66825;51.880;-0.518;2023-07-22T05:50:40;100221.66;;;21.29;41.45
39435;BME280;66825;51.880;-0.518;2023-07-22T05:53:06;100220.84;;;21.29;41.38
39435;BME280;66825;51.880;-0.518;2023-07-22T05:55:32;100218.94;;;21.29;41.42
39435;BME280;66825;51.880;-0.518;2023-07-22T05:57:57;100213.75;;;21.27;41.40
39435;BME280;66825;51.880;-0.518;2023-07-22T06:00:24;100217.31;;;21.28;41.42
39435;BME280;66825;51.880;-0.518;2023-07-22T06:02:50;100209.88;;;21.29;41.31
39435;BME280;66825;51.880;-0.518;2023-07-22T06:05:16;100210.22;;;21.27;41.35
39435;BME280;66825;51.880;-0.518;2023-07-22T06:07:41;100220.84;;;21.29;41.43
39435;BME280;66825;51.880;-0.518;2023-07-22T06:10:07;100212.16;;;21.26;41.44
39435;BME280;66825;51.880;-0.518;2023-07-22T06:12:34;100218.44;;;21.27;41.37
39435;BME280;66825;51.880;-0.518;2023-07-22T06:15:00;100201.38;;;21.21;41.49
39435;BME280;66825;51.880;-0.518;2023-07-22T06:17:25;100211.34;;;21.26;41.39
39435;BME280;66825;51.880;-0.518;2023-07-22T06:19:51;100205.88;;;21.26;41.41
39435;BME280;66825;51.880;-0.518;2023-07-22T06:22:16;100213.31;;;21.25;41.39
39435;BME280;66825;51.880;-0.518;2023-07-22T06:24:42;100201.88;;;21.23;41.28
39435;BME280;66825;51.880;-0.518;2023-07-22T06:27:07;100198.78;;;21.25;41.43
39435;BME280;66825;51.880;-0.518;2023-07-22T06:29:32;100209.75;;;21.25;41.46
39435;BME280;66825;51.880;-0.518;2023-07-22T06:31:58;100205.41;;;21.24;41.42
39435;BME280;66825;51.880;-0.518;2023-07-22T06:34:23;100205.09;;;21.25;41.42
39435;BME280;66825;51.880;-0.518;2023-07-22T06:36:49;100155.44;;;20.97;41.43
39435;BME280;66825;51.880;-0.518;2023-07-22T06:39:14;100199.13;;;21.23;41.33
39435;BME280;66825;51.880;-0.518;2023-07-22T06:41:40;100194.78;;;21.22;41.19
39435;BME280;66825;51.880;-0.518;2023-07-22T06:44:05;100190.91;;;21.23;41.60
39435;BME280;66825;51.880;-0.518;2023-07-22T06:46:30;100188.16;;;21.23;41.52
39435;BME280;66825;51.880;-0.518;2023-07-22T06:48:56;100188.16;;;21.23;41.35
39435;BME280;66825;51.880;-0.518;2023-07-22T06:51:21;100182.69;;;21.23;41.59
39435;BME280;66825;51.880;-0.518;2023-07-22T06:53:47;100126.16;;;20.89;41.49
39435;BME280;66825;51.880;-0.518;2023-07-22T06:56:12;100181.09;;;21.22;41.35
39435;BME280;66825;51.880;-0.518;2023-07-22T06:58:38;100142.41;;;20.94;41.47
39435;BME280;66825;51.880;-0.518;2023-07-22T07:01:03;100185.78;;;21.22;41.37
39435;BME280;66825;51.880;-0.518;2023-07-22T07:03:29;100183.81;;;21.22;41.49
39435;BME280;66825;51.880;-0.518;2023-07-22T07:05:55;100176.72;;;21.21;41.48
39435;BME280;66825;51.880;-0.518;2023-07-22T07:08:21;100174.81;;;21.22;41.62
39435;BME280;66825;51.880;-0.518;2023-07-22T07:10:47;100171.25;;;21.21;41.55
39435;BME280;66825;51.880;-0.518;2023-07-22T07:13:12;100173.19;;;21.21;41.43
39435;BME280;66825;51.880;-0.518;2023-07-22T07:15:38;100167.72;;;21.21;41.55
39435;BME280;66825;51.880;-0.518;2023-07-22T07:18:03;100173.19;;;21.21;41.58
39435;BME280;66825;51.880;-0.518;2023-07-22T07:20:29;100162.56;;;21.19;41.58
39435;BME280;66825;51.880;-0.518;2023-07-22T07:22:54;100166.91;;;21.20;41.59
39435;BME280;66825;51.880;-0.518;2023-07-22T07:25:20;100164.97;;;21.21;41.56
39435;BME280;66825;51.880;-0.518;2023-07-22T07:27:46;100163.38;;;21.20;41.55
39435;BME280;66825;51.880;-0.518;2023-07-22T07:30:11;100165.28;;;21.19;41.46
39435;BME280;66825;51.880;-0.518;2023-07-22T07:32:37;100160.97;;;21.18;41.54
39435;BME280;66825;51.880;-0.518;2023-07-22T07:35:02;100168.03;;;21.19;41.50
39435;BME280;66825;51.880;-0.518;2023-07-22T07:37:29;100166.44;;;21.18;41.71
39435;BME280;66825;51.880;-0.518;2023-07-22T07:39:55;100163.22;;;21.16;41.50
39435;BME280;66825;51.880;-0.518;2023-07-22T07:42:28;100154.34;;;21.19;41.56
39435;BME280;66825;51.880;-0.518;2023-07-22T07:44:54;100154.69;;;21.18;41.57
39435;BME280;66825;51.880;-0.518;2023-07-22T07:47:19;100155.50;;;21.18;41.65
39435;BME280;66825;51.880;-0.518;2023-07-22T07:49:45;100159.38;;;21.17;41.83
39435;BME280;66825;51.880;-0.518;2023-07-22T07:52:11;100150.66;;;21.15;41.60
39435;BME280;66825;51.880;-0.518;2023-07-22T07:54:36;100163.72;;;21.18;41.68
39435;BME280;66825;51.880;-0.518;2023-07-22T07:57:02;100161.28;;;21.17;41.47
39435;BME280;66825;51.880;-0.518;2023-07-22T07:59:27;100157.41;;;21.18;41.80
39435;BME280;66825;51.880;-0.518;2023-07-22T08:01:53;100157.41;;;21.18;41.71
39435;BME280;66825;51.880;-0.518;2023-07-22T08:04:18;100163.72;;;21.18;41.56
39435;BME280;66825;51.880;-0.518;2023-07-22T08:06:44;100140.56;;;21.07;41.70
39435;BME280;66825;51.880;-0.518;2023-07-22T08:09:10;100151.16;;;21.17;41.68
39435;BME280;66825;51.880;-0.518;2023-07-22T08:11:37;100156.28;;;21.19;41.76
39435;BME280;66825;51.880;-0.518;2023-07-22T08:14:03;100137.97;;;21.10;41.73
39435;BME280;66825;51.880;-0.518;2023-07-22T08:16:30;100148.41;;;21.17;41.84
39435;BME280;66825;51.880;-0.518;2023-07-22T08:18:56;100142.94;;;21.17;41.79
39435;BME280;66825;51.880;-0.518;2023-07-22T08:21:21;100155.00;;;21.16;41.81
39435;BME280;66825;51.880;-0.518;2023-07-22T08:23:47;100149.53;;;21.16;41.74
39435;BME280;66825;51.880;-0.518;2023-07-22T08:26:13;100142.09;;;21.17;41.81
39435;BME280;66825;51.880;-0.518;2023-07-22T08:28:38;100144.84;;;21.17;41.74
39435;BME280;66825;51.880;-0.518;2023-07-22T08:31:04;100145.19;;;21.15;41.87
39435;BME280;66825;51.880;-0.518;2023-07-22T08:33:30;100150.31;;;21.17;41.78
39435;BME280;66825;51.880;-0.518;2023-07-22T08:35:56;100146.78;;;21.16;41.91
39435;BME280;66825;51.880;-0.518;2023-07-22T08:38:21;100122.38;;;21.02;41.66
39435;BME280;66825;51.880;-0.518;2023-07-22T08:40:49;100138.56;;;21.16;41.79
39435;BME280;66825;51.880;-0.518;2023-07-22T08:43:19;100134.44;;;21.10;41.95
39435;BME280;66825;51.880;-0.518;2023-07-22T08:45:47;100087.56;;;20.82;41.85
39435;BME280;66825;51.880;-0.518;2023-07-22T08:48:15;100138.56;;;21.16;41.79
39435;BME280;66825;51.880;-0.518;2023-07-22T08:50:59;100139.72;;;21.15;41.93
39435;BME280;66825;51.880;-0.518;2023-07-22T08:53:28;100138.56;;;21.16;41.92
39435;BME280;66825;51.880;-0.518;2023-07-22T08:55:54;100140.50;;;21.16;41.86
39435;BME280;66825;51.880;-0.518;2023-07-22T08:58:21;100134.22;;;21.15;41.95
39435;BME280;66825;51.880;-0.518;2023-07-22T09:00:47;100129.41;;;21.12;41.94
39435;BME280;66825;51.880;-0.518;2023-07-22T09:03:13;100136.19;;;21.15;41.98
39435;BME280;66825;51.880;-0.518;2023-07-22T09:05:40;100118.16;;;21.05;41.90
39435;BME280;66825;51.880;-0.518;2023-07-22T09:08:07;100118.16;;;21.05;42.01
39435;BME280;66825;51.880;-0.518;2023-07-22T09:10:34;100131.50;;;21.15;41.73
39435;BME280;66825;51.880;-0.518;2023-07-22T09:13:00;100070.66;;;20.79;42.02
39435;BME280;66825;51.880;-0.518;2023-07-22T09:15:27;100128.75;;;21.15;42.00
39435;BME280;66825;51.880;-0.518;2023-07-22T09:17:53;100065.38;;;20.74;42.02
39435;BME280;66825;51.880;-0.518;2023-07-22T09:20:20;100126.00;;;21.15;41.92
39435;BME280;66825;51.880;-0.518;2023-07-22T09:22:46;100099.69;;;21.02;42.56
39435;BME280;66825;51.880;-0.518;2023-07-22T09:25:23;100113.31;;;21.10;42.08
39435;BME280;66825;51.880;-0.518;2023-07-22T09:27:51;100123.63;;;21.14;41.88
39435;BME280;66825;51.880;-0.518;2023-07-22T09:32:57;100097.09;;;21.05;42.03
39435;BME280;66825;51.880;-0.518;2023-07-22T09:35:25;100110.72;;;21.14;41.95
39435;BME280;66825;51.880;-0.518;2023-07-22T09:37:53;100112.66;;;21.14;42.09
39435;BME280;66825;51.880;-0.518;2023-07-22T09:40:20;100115.41;;;21.14;41.93
39435;BME280;66825;51.880;-0.518;2023-07-22T09:42:51;100108.31;;;21.13;42.16
39435;BME280;66825;51.880;-0.518;2023-07-22T09:45:18;100103.16;;;21.11;41.97
39435;BME280;66825;51.880;-0.518;2023-07-22T09:47:45;100105.88;;;21.11;42.19
39435;BME280;66825;51.880;-0.518;2023-07-22T09:50:13;100097.53;;;21.07;41.97
39435;BME280;66825;51.880;-0.518;2023-07-22T09:55:13;100106.38;;;21.13;42.11
39435;BME280;66825;51.880;-0.518;2023-07-22T09:57:45;100099.63;;;21.10;42.36
39435;BME280;66825;51.880;-0.518;2023-07-22T10:00:15;100103.63;;;21.13;42.34
39435;BME280;66825;51.880;-0.518;2023-07-22T10:02:43;100096.09;;;21.10;41.87
39435;BME280;66825;51.880;-0.518;2023-07-22T10:05:14;100098.16;;;21.13;42.08
39435;BME280;66825;51.880;-0.518;2023-07-22T10:07:45;100093.34;;;21.10;42.24
39435;BME280;66825;51.880;-0.518;2023-07-22T10:10:12;100093.78;;;21.12;42.14
39435;BME280;66825;51.880;-0.518;2023-07-22T10:12:41;100103.97;;;21.12;42.04
39435;BME280;66825;51.880;-0.518;2023-07-22T10:15:09;100082.25;;;21.06;42.32
39435;BME280;66825;51.880;-0.518;2023-07-22T10:17:35;100099.28;;;21.12;42.12
39435;BME280;66825;51.880;-0.518;2023-07-22T10:20:01;100099.28;;;21.12;42.20
39435;BME280;66825;51.880;-0.518;2023-07-22T10:22:30;100090.28;;;21.12;42.06
39435;BME280;66825;51.880;-0.518;2023-07-22T10:24:56;100095.75;;;21.12;42.01
39435;BME280;66825;51.880;-0.518;2023-07-22T10:27:22;100086.72;;;21.11;42.27
39435;BME280;66825;51.880;-0.518;2023-07-22T10:29:48;100092.19;;;21.11;42.15
39435;BME280;66825;51.880;-0.518;2023-07-22T10:32:14;100090.28;;;21.12;42.15
39435;BME280;66825;51.880;-0.518;2023-07-22T10:34:41;100087.53;;;21.12;42.19
39435;BME280;66825;51.880;-0.518;2023-07-22T10:37:09;100081.22;;;21.11;42.19
39435;BME280;66825;51.880;-0.518;2023-07-22T10:39:35;100078.03;;;21.09;42.24
39435;BME280;66825;51.880;-0.518;2023-07-22T10:42:04;100082.38;;;21.10;42.05
39435;BME280;66825;51.880;-0.518;2023-07-22T10:44:36;100061.22;;;20.98;42.10
39435;BME280;66825;51.880;-0.518;2023-07-22T10:47:02;100073.34;;;21.09;42.14
39435;BME280;66825;51.880;-0.518;2023-07-22T10:49:44;100053.78;;;20.99;42.27
39435;BME280;66825;51.880;-0.518;2023-07-22T10:52:13;100069.50;;;21.10;42.25
39435;BME280;66825;51.880;-0.518;2023-07-22T10:54:39;100076.91;;;21.10;42.23
39435;BME280;66825;51.880;-0.518;2023-07-22T10:59:49;100071.44;;;21.10;42.34
39435;BME280;66825;51.880;-0.518;2023-07-22T11:02:26;100065.97;;;21.10;42.14
39435;BME280;66825;51.880;-0.518;2023-07-22T11:04:52;100064.00;;;21.10;42.31
39435;BME280;66825;51.880;-0.518;2023-07-22T11:07:30;100061.63;;;21.09;42.28
39435;BME280;66825;51.880;-0.518;2023-07-22T11:09:56;100063.53;;;21.08;42.15
39435;BME280;66825;51.880;-0.518;2023-07-22T11:12:24;100056.94;;;21.09;42.24
39435;BME280;66825;51.880;-0.518;2023-07-22T11:15:09;100078.03;;;21.09;42.21
39435;BME280;66825;51.880;-0.518;2023-07-22T11:17:34;100083.53;;;21.09;42.10
39435;BME280;66825;51.880;-0.518;2023-07-22T11:20:00;100083.53;;;21.09;42.29
39435;BME280;66825;51.880;-0.518;2023-07-22T11:22:26;100072.03;;;20.94;42.21
39435;BME280;66825;51.880;-0.518;2023-07-22T11:24:55;100076.66;;;21.03;42.13
39435;BME280;66825;51.880;-0.518;2023-07-22T11:27:21;100080.78;;;21.09;42.35
39435;BME280;66825;51.880;-0.518;2023-07-22T11:29:50;100072.75;;;21.04;42.01
39435;BME280;66825;51.880;-0.518;2023-07-22T11:32:17;100075.31;;;21.09;42.29
39435;BME280;66825;51.880;-0.518;2023-07-22T11:34:44;100070.00;;;21.04;42.33
39435;BME280;66825;51.880;-0.518;2023-07-22T11:37:12;100069.81;;;21.09;42.37
39435;BME280;66825;51.880;-0.518;2023-07-22T11:39:39;100058.88;;;21.09;42.38
39435;BME280;66825;51.880;-0.518;2023-07-22T11:42:07;100061.63;;;21.09;42.50
39435;BME280;66825;51.880;-0.518;2023-07-22T11:44:32;100049.84;;;21.08;42.65
39435;BME280;66825;51.880;-0.518;2023-07-22T11:47:03;100050.66;;;21.09;42.32
39435;BME280;66825;51.880;-0.518;2023-07-22T11:49:34;100042.44;;;21.09;42.47
39435;BME280;66825;51.880;-0.518;2023-07-22T11:52:01;100039.22;;;21.07;42.60
39435;BME280;66825;51.880;-0.518;2023-07-22T11:54:29;100038.09;;;21.08;42.36
39435;BME280;66825;51.880;-0.518;2023-07-22T11:56:55;100034.53;;;21.07;42.31
39435;BME280;66825;51.880;-0.518;2023-07-22T11:59:35;100033.75;;;21.07;42.62
39435;BME280;66825;51.880;-0.518;2023-07-22T12:02:02;100009.75;;;21.04;42.29
39435;BME280;66825;51.880;-0.518;2023-07-22T12:04:31;100013.78;;;21.06;42.54
39435;BME280;66825;51.880;-0.518;2023-07-22T12:06:56;100002.84;;;21.06;42.30
39435;BME280;66825;51.880;-0.518;2023-07-22T12:09:22;100000.88;;;21.07;42.58
39435;BME280;66825;51.880;-0.518;2023-07-22T12:11:55;100003.63;;;21.07;42.52
39435;BME280;66825;51.880;-0.518;2023-07-22T12:14:21;100002.84;;;21.06;42.46
39435;BME280;66825;51.880;-0.518;2023-07-22T12:16:46;99999.28;;;21.06;42.48
39435;BME280;66825;51.880;-0.518;2023-07-22T12:19:12;99998.50;;;21.05;42.40
39435;BME280;66825;51.880;-0.518;2023-07-22T12:21:37;99996.53;;;21.06;42.57
39435;BME280;66825;51.880;-0.518;2023-07-22T12:24:03;99997.34;;;21.06;42.37
39435;BME280;66825;51.880;-0.518;2023-07-22T12:26:30;99985.59;;;21.06;42.36
39435;BME280;66825;51.880;-0.518;2023-07-22T12:28:55;99986.41;;;21.06;42.40
39435;BME280;66825;51.880;-0.518;2023-07-22T12:31:21;99983.97;;;21.05;42.40
39435;BME280;66825;51.880;-0.518;2023-07-22T12:33:46;99973.84;;;21.05;42.31
39435;BME280;66825;51.880;-0.518;2023-07-22T12:36:12;99976.88;;;21.04;42.42
39435;BME280;66825;51.880;-0.518;2023-07-22T12:38:37;99980.78;;;21.03;42.20
39435;BME280;66825;51.880;-0.518;2023-07-22T12:41:03;99977.38;;;21.06;42.18
39435;BME280;66825;51.880;-0.518;2023-07-22T12:43:28;99974.63;;;21.06;42.28
39435;BME280;66825;51.880;-0.518;2023-07-22T12:45:54;99959.53;;;21.00;42.42